Aviation Digital Data Service (ADDS)

Output produced by METARs form (1655 UTC 20 January 2019)
found at http://www.aviationweather.gov/metar/data/
 
FOON 201600Z 2104KT 9999 SCT020 33/22 Q1012
FOOL 201630Z 24009KT 200V280 9999 SCT015 29/25 Q1010 NOSIG
TAF FOOL 201100Z 2012/2118 22007KT 9999 SCT013 
     TEMPO 2015/2021 TS SCT013 FEW020CB 
     PROB30 
     TEMPO 2100/2107 4000 TSRA BKN006 FEW020CB OVC026
       
FOOG 201600Z 24010KT 9999 SCT011 30/25 Q1011
TAF FOOG 201100Z 2012/2112 22008KT 9999 SCT011 
     TEMPO 2014/2021 TS SCT011 FEW016CB BKN030